Time;durP1;ratioP1;P1;durP2;ratioP2;P2;SDS_P1;SDS_P2;PMS_P1;PMS_P2;Temp;Humidity;BMP_temperature;BMP_pressure;BME280_temperature;BME280_humidity;BME280_pressure;Samples;Min_cycle;Max_cycle;Signal;HPM_P1;HPM_P2
2022/11/24 00:01:15;;;;;;;45.80;7.82;;;4.70;99.90;;;3.47;100.00;96649.25;5079122;28;20406;-75
2022/11/24 00:03:42;;;;;;;27.02;5.78;;;4.70;99.90;;;3.50;100.00;96651.44;5087863;28;20433;-75
2022/11/24 00:06:12;;;;;;;22.38;5.47;;;4.70;99.90;;;3.53;100.00;96647.59;5073014;28;20812;-75
2022/11/24 00:08:39;;;;;;;21.15;5.60;;;4.70;99.90;;;3.56;100.00;96649.75;5068656;28;20448;-75
2022/11/24 00:11:08;;;;;;;25.45;6.43;;;4.70;99.90;;;3.57;100.00;96647.94;5068677;28;20415;-75
2022/11/24 00:13:37;;;;;;;25.73;5.65;;;4.80;99.90;;;3.56;100.00;96654.97;5067850;28;20419;-75
2022/11/24 00:16:07;;;;;;;21.23;5.30;;;4.80;99.90;;;3.55;100.00;96658.63;5082320;28;20429;-75
2022/11/24 00:18:33;;;;;;;34.13;6.78;;;4.70;99.90;;;3.58;100.00;96660.78;5068250;28;20399;-75
2022/11/24 00:20:59;;;;;;;34.10;6.78;;;4.80;99.90;;;3.59;100.00;96656.38;5073010;28;20433;-75
2022/11/24 00:23:26;;;;;;;33.30;5.72;;;4.80;99.90;;;3.56;100.00;96662.03;5079404;28;20761;-75
2022/11/24 00:25:52;;;;;;;21.52;5.50;;;4.70;99.90;;;3.52;100.00;96666.94;5068484;28;20923;-75
2022/11/24 00:28:17;;;;;;;23.77;5.60;;;4.70;99.90;;;3.54;100.00;96656.22;5070679;28;20446;-75
2022/11/24 00:30:43;;;;;;;33.00;6.33;;;4.70;99.90;;;3.57;100.00;96659.19;5069534;28;20416;-75
2022/11/24 00:33:09;;;;;;;38.67;14.32;;;4.70;99.90;;;3.58;100.00;96665.22;5067847;28;20407;-75
2022/11/24 00:35:35;;;;;;;25.90;6.60;;;4.80;99.90;;;3.58;100.00;96668.66;5068266;28;20412;-75
2022/11/24 00:38:01;;;;;;;30.75;5.75;;;4.80;99.90;;;3.55;100.00;96666.47;5068437;28;20443;-74
2022/11/24 00:40:28;;;;;;;39.88;6.55;;;4.70;99.90;;;3.54;100.00;96674.53;5050368;28;20505;-75
2022/11/24 00:42:54;;;;;;;27.07;5.90;;;4.70;99.90;;;3.49;100.00;96672.59;5065505;28;20418;-75
2022/11/24 00:45:20;;;;;;;21.63;5.43;;;4.70;99.90;;;3.48;100.00;96671.00;5088086;28;20430;-75
2022/11/24 00:47:46;;;;;;;38.15;6.80;;;4.70;99.90;;;3.51;100.00;96675.78;5088316;28;20501;-75
2022/11/24 00:50:12;;;;;;;24.57;5.73;;;4.70;99.90;;;3.44;100.00;96685.56;5088234;28;20500;-75
2022/11/24 00:52:38;;;;;;;31.98;5.80;;;4.70;99.90;;;3.41;100.00;96680.75;5069466;28;20419;-75
2022/11/24 00:55:04;;;;;;;36.60;6.82;;;4.60;99.90;;;3.38;100.00;96684.59;5069128;28;20407;-75
2022/11/24 00:57:33;;;;;;;30.90;6.50;;;4.60;99.90;;;3.34;100.00;96685.28;5087428;28;20451;-74
2022/11/24 00:59:59;;;;;;;23.73;5.38;;;4.60;99.90;;;3.28;100.00;96688.78;5069692;28;20397;-75
2022/11/24 01:02:26;;;;;;;30.73;6.73;;;4.50;99.90;;;3.24;100.00;96692.84;5069835;28;20780;-75
2022/11/24 01:04:51;;;;;;;25.73;5.82;;;4.50;99.90;;;3.20;100.00;96694.34;5069331;28;20760;-75
2022/11/24 01:07:17;;;;;;;21.80;5.70;;;4.40;99.90;;;3.15;100.00;96702.06;5088071;28;20412;-75
2022/11/24 01:09:44;;;;;;;37.08;6.60;;;4.40;99.90;;;3.15;100.00;96700.22;5079466;28;20938;-74
2022/11/24 01:12:10;;;;;;;41.08;7.68;;;4.40;99.90;;;3.14;100.00;96706.47;5088165;28;20406;-75
2022/11/24 01:14:38;;;;;;;32.00;6.47;;;4.40;99.90;;;3.09;100.00;96708.94;5086842;28;20967;-75
2022/11/24 01:17:03;;;;;;;41.47;7.53;;;4.30;99.90;;;3.13;100.00;96710.09;5087925;28;20410;-75
2022/11/24 01:19:29;;;;;;;34.20;6.95;;;4.30;99.90;;;3.06;100.00;96710.19;5069752;28;20768;-75
2022/11/24 01:21:55;;;;;;;30.98;6.97;;;4.30;99.90;;;3.07;100.00;96714.41;5085315;28;20426;-75
2022/11/24 01:24:21;;;;;;;22.95;6.05;;;4.30;99.90;;;3.06;100.00;96718.03;5067297;28;20995;-74
2022/11/24 01:26:47;;;;;;;28.70;6.28;;;4.30;99.90;;;3.06;100.00;96725.88;5068023;28;20403;-74
2022/11/24 01:29:13;;;;;;;34.95;6.80;;;4.30;99.90;;;3.08;100.00;96726.44;5069180;28;20412;-75
2022/11/24 01:31:41;;;;;;;23.85;5.93;;;4.30;99.90;;;3.08;100.00;96725.66;5049716;28;20515;-75
2022/11/24 01:34:07;;;;;;;45.47;7.68;;;4.30;99.90;;;3.17;100.00;96723.53;5082701;28;20413;-74
2022/11/24 01:36:33;;;;;;;24.50;6.00;;;4.40;99.90;;;3.22;100.00;96727.09;5083197;28;20488;-75
2022/11/24 01:38:59;;;;;;;36.38;6.45;;;4.40;99.90;;;3.25;100.00;96731.88;5088228;28;20416;-76
2022/11/24 01:41:26;;;;;;;32.17;6.27;;;4.50;99.90;;;3.31;100.00;96732.78;5087807;28;20409;-75
2022/11/24 01:43:54;;;;;;;21.70;5.53;;;4.50;99.90;;;3.36;100.00;96730.34;5087503;28;20394;-76
2022/11/24 01:46:26;;;;;;;28.97;5.63;;;4.50;99.90;;;3.45;100.00;96734.25;5087325;28;20421;-76
2022/11/24 01:49:01;;;;;;;28.92;5.45;;;4.60;99.90;;;3.50;100.00;96737.78;5085825;28;20960;-76
2022/11/24 01:51:32;;;;;;;31.05;5.28;;;4.70;99.90;;;3.56;100.00;96743.94;5077152;28;20444;-75
2022/11/24 01:54:05;;;;;;;25.52;5.68;;;4.70;99.90;;;3.59;100.00;96738.28;5086996;28;20419;-75
2022/11/24 01:56:33;;;;;;;30.83;6.00;;;4.80;99.90;;;3.62;100.00;96744.88;5075179;28;20437;-75
2022/11/24 01:59:03;;;;;;;25.67;5.10;;;4.80;99.90;;;3.65;100.00;96747.84;5086680;28;20438;-75
2022/11/24 02:01:30;;;;;;;34.75;5.80;;;4.80;99.90;;;3.74;100.00;96748.34;5081441;28;20456;-76
2022/11/24 02:04:00;;;;;;;34.88;5.80;;;4.90;99.90;;;3.81;100.00;96756.91;5082381;28;20818;-76
2022/11/24 02:06:30;;;;;;;39.65;6.65;;;5.00;99.90;;;4.01;100.00;96754.78;5073526;28;20948;-75
2022/11/24 02:08:59;;;;;;;29.52;6.40;;;5.10;99.90;;;4.13;100.00;96749.56;5071191;28;20441;-75
2022/11/24 02:11:32;;;;;;;35.00;6.20;;;5.30;99.90;;;4.26;100.00;96758.00;5070884;28;20438;-76
2022/11/24 02:13:58;;;;;;;33.53;5.20;;;5.40;99.90;;;4.29;100.00;96757.53;5070420;28;20483;-75
2022/11/24 02:16:25;;;;;;;29.35;6.03;;;5.40;99.90;;;4.27;100.00;96754.38;5054544;28;20524;-76
2022/11/24 02:18:51;;;;;;;31.63;5.53;;;5.40;99.90;;;4.24;100.00;96761.88;5089633;28;20407;-76
2022/11/24 02:21:19;;;;;;;32.67;6.63;;;5.40;99.90;;;4.17;100.00;96761.97;5089294;28;20417;-75
2022/11/24 02:23:54;;;;;;;26.75;4.93;;;5.30;99.90;;;4.10;100.00;96771.75;5089815;28;20404;-75
2022/11/24 02:26:39;;;;;;;18.23;4.57;;;5.30;99.90;;;4.07;100.00;96772.19;5090628;28;20867;-75
2022/11/24 02:29:05;;;;;;;28.52;5.07;;;5.20;99.90;;;3.96;100.00;96770.38;5090888;28;20502;-75
2022/11/24 02:31:31;;;;;;;21.88;4.57;;;5.10;99.90;;;3.92;100.00;96763.16;5083286;28;20446;-75
2022/11/24 02:33:57;;;;;;;25.98;5.10;;;5.10;99.90;;;3.85;100.00;96764.06;5083892;28;20405;-75
2022/11/24 02:36:23;;;;;;;21.42;4.53;;;5.00;99.90;;;3.77;100.00;96774.06;5090695;28;20406;-77
2022/11/24 02:38:49;;;;;;;26.23;5.28;;;5.00;99.90;;;3.69;100.00;96766.50;5090829;28;20405;-76
2022/11/24 02:41:18;;;;;;;25.85;5.03;;;4.90;99.90;;;3.59;100.00;96761.03;5090161;28;20978;-75
2022/11/24 02:43:52;;;;;;;27.92;5.38;;;4.80;99.90;;;3.52;100.00;96770.78;5089670;28;20423;-76
2022/11/24 02:46:18;;;;;;;24.27;4.78;;;4.70;99.90;;;3.43;100.00;96758.00;5085641;28;20535;-75
2022/11/24 02:48:43;;;;;;;20.40;4.95;;;4.70;99.90;;;3.40;100.00;96762.88;5088805;28;20978;-76
2022/11/24 02:51:09;;;;;;;23.10;5.43;;;4.60;99.90;;;3.37;100.00;96766.75;5075670;28;20468;-75
2022/11/24 02:53:35;;;;;;;22.67;4.90;;;4.60;99.90;;;3.31;100.00;96762.38;5089650;28;20408;-76
2022/11/24 02:56:01;;;;;;;18.40;4.38;;;4.50;99.90;;;3.26;100.00;96762.25;5088832;28;20400;-75
2022/11/24 02:58:27;;;;;;;26.08;5.70;;;4.50;99.90;;;3.25;100.00;96759.84;5071634;28;20763;-75
2022/11/24 03:00:56;;;;;;;28.25;5.22;;;4.50;99.90;;;3.17;100.00;96766.16;5071137;28;20485;-75
2022/11/24 03:03:22;;;;;;;25.67;5.50;;;4.40;99.90;;;3.18;100.00;96773.00;5077554;28;20400;-74
2022/11/24 03:05:49;;;;;;;20.48;5.10;;;4.40;99.90;;;3.14;100.00;96776.28;5070194;28;20892;-75
2022/11/24 03:08:15;;;;;;;28.20;5.40;;;4.40;99.90;;;3.13;100.00;96774.69;5071148;28;20404;-75
2022/11/24 03:10:41;;;;;;;29.52;5.97;;;4.40;99.90;;;3.13;100.00;96774.69;5070191;28;20395;-75
2022/11/24 03:13:07;;;;;;;27.45;6.40;;;4.30;99.90;;;3.14;100.00;96773.66;5069305;28;20487;-75
2022/11/24 03:15:33;;;;;;;20.15;5.60;;;4.30;99.90;;;3.10;100.00;96773.28;5088735;28;20402;-75
2022/11/24 03:18:00;;;;;;;19.92;4.55;;;4.30;99.90;;;3.07;100.00;96777.16;5070124;28;20920;-75
2022/11/24 03:20:26;;;;;;;18.73;4.70;;;4.30;99.90;;;3.05;100.00;96776.56;5069811;28;20436;-75
2022/11/24 03:22:52;;;;;;;18.05;5.05;;;4.30;99.90;;;3.04;100.00;96776.78;5068804;28;20443;-75
2022/11/24 03:25:18;;;;;;;23.20;5.10;;;4.30;99.90;;;3.04;100.00;96779.41;5069727;28;20537;-75
2022/11/24 03:27:45;;;;;;;22.83;5.75;;;4.30;99.90;;;3.02;100.00;96778.81;5077210;28;20784;-75
2022/11/24 03:30:12;;;;;;;23.80;5.03;;;4.20;99.90;;;2.98;100.00;96778.47;5089339;28;20398;-75
2022/11/24 03:32:38;;;;;;;32.78;5.60;;;4.20;99.90;;;3.00;100.00;96786.09;5088366;28;20763;-75
2022/11/24 03:35:06;;;;;;;21.23;5.30;;;4.20;99.90;;;2.96;100.00;96787.53;5069298;28;20407;-75
2022/11/24 03:37:32;;;;;;;29.60;6.20;;;4.20;99.90;;;2.92;100.00;96800.25;5069456;28;20551;-75
2022/11/24 03:39:58;;;;;;;27.00;5.75;;;4.20;99.90;;;2.93;100.00;96801.81;5069400;28;20557;-75
2022/11/24 03:42:24;;;;;;;31.50;5.70;;;4.10;99.90;;;2.91;100.00;96800.47;5084574;28;20406;-75
2022/11/24 03:44:50;;;;;;;20.83;4.90;;;4.10;99.90;;;2.89;100.00;96805.09;5075771;28;20431;-75
2022/11/24 03:47:16;;;;;;;20.73;5.10;;;4.10;99.90;;;2.91;100.00;96806.47;5084106;28;20398;-75
2022/11/24 03:49:42;;;;;;;17.20;5.25;;;4.10;99.90;;;2.89;100.00;96802.47;5068753;28;20432;-75
2022/11/24 03:52:09;;;;;;;22.25;5.45;;;4.10;99.90;;;2.95;100.00;96812.88;5069433;28;20440;-75
2022/11/24 03:54:35;;;;;;;23.15;5.35;;;4.20;99.90;;;2.98;100.00;96811.66;5069316;28;21078;-75
2022/11/24 03:57:01;;;;;;;16.77;4.93;;;4.20;99.90;;;2.97;100.00;96795.16;5067737;28;20561;-75
2022/11/24 03:59:27;;;;;;;18.70;5.40;;;4.20;99.90;;;3.00;100.00;96804.41;5089222;28;20442;-75
2022/11/24 04:01:53;;;;;;;23.48;5.43;;;4.20;99.90;;;2.98;100.00;96806.41;5088774;28;20466;-75
2022/11/24 04:04:19;;;;;;;23.45;5.53;;;4.20;99.90;;;2.97;100.00;96812.66;5086631;28;20407;-75
2022/11/24 04:06:45;;;;;;;20.30;5.00;;;4.20;99.90;;;2.96;100.00;96813.66;5088914;28;20968;-75
2022/11/24 04:09:12;;;;;;;23.53;5.77;;;4.20;99.90;;;2.99;100.00;96818.47;5078430;28;20415;-74
2022/11/24 04:14:22;;;;;;;19.83;5.35;;;4.20;99.90;;;2.98;100.00;96820.28;5088710;28;20479;-74
2022/11/24 04:16:48;;;;;;;25.48;5.38;;;4.20;99.90;;;2.96;100.00;96824.94;5093628;28;20406;-75
2022/11/24 04:19:14;;;;;;;23.73;5.40;;;4.20;99.90;;;2.95;100.00;96817.28;5093482;28;20408;-74
2022/11/24 04:21:40;;;;;;;20.40;5.50;;;4.20;99.90;;;2.91;100.00;96824.78;5091349;28;20415;-75
2022/11/24 04:24:06;;;;;;;25.35;5.72;;;4.10;99.90;;;2.89;100.00;96829.41;5067888;28;20410;-75
2022/11/24 04:26:33;;;;;;;19.53;5.07;;;4.10;99.90;;;2.87;100.00;96835.88;5068706;28;21011;-75
2022/11/24 04:28:59;;;;;;;18.00;4.55;;;4.10;99.90;;;2.86;100.00;96837.69;5069509;28;20777;-75
2022/11/24 04:31:25;;;;;;;19.20;5.38;;;4.10;99.90;;;2.87;100.00;96841.09;5068409;28;20419;-75
2022/11/24 04:33:51;;;;;;;22.23;5.50;;;4.10;99.90;;;2.89;100.00;96837.25;5067745;28;20414;-75
2022/11/24 04:36:17;;;;;;;29.70;6.13;;;4.10;99.90;;;2.92;100.00;96841.28;5070782;28;20857;-75
2022/11/24 04:38:43;;;;;;;30.63;5.43;;;4.10;99.90;;;2.95;100.00;96839.00;5075350;28;20579;-75
2022/11/24 04:41:09;;;;;;;25.40;5.85;;;4.20;99.90;;;2.95;100.00;96843.44;5111762;22;20488;-77
2022/11/24 04:43:36;;;;;;;20.15;5.78;;;4.20;99.90;;;2.95;100.00;96848.66;5107573;28;20885;-77
2022/11/24 04:46:02;;;;;;;24.30;5.70;;;4.20;99.90;;;2.96;100.00;96845.03;5108070;28;20469;-77
2022/11/24 04:48:28;;;;;;;18.60;4.85;;;4.20;99.90;;;2.95;100.00;96839.00;5108284;28;20416;-77
2022/11/24 04:50:54;;;;;;;20.20;4.95;;;4.20;99.90;;;2.96;100.00;96845.84;5096318;28;20415;-76
2022/11/24 04:53:20;;;;;;;14.45;4.65;;;4.20;99.90;;;2.95;100.00;96846.84;5100846;28;20457;-75
2022/11/24 04:55:46;;;;;;;19.70;5.55;;;4.20;99.90;;;2.97;100.00;96846.63;5103633;28;20422;-75
2022/11/24 04:58:12;;;;;;;30.48;5.85;;;4.20;99.90;;;2.96;100.00;96835.38;5085608;28;20410;-75
2022/11/24 05:00:40;;;;;;;29.27;6.15;;;4.20;99.90;;;3.00;100.00;96841.00;5086487;28;20450;-76
2022/11/24 05:03:06;;;;;;;28.10;6.10;;;4.20;99.90;;;2.99;100.00;96842.81;5076001;28;20448;-76
2022/11/24 05:05:32;;;;;;;22.23;6.00;;;4.20;99.90;;;2.99;100.00;96842.81;5086565;28;20842;-75
2022/11/24 05:07:58;;;;;;;23.13;5.93;;;4.20;99.90;;;3.09;100.00;96852.75;5072121;28;20417;-76
2022/11/24 05:10:34;;;;;;;24.77;5.47;;;4.30;99.90;;;3.20;100.00;96854.66;5087362;28;20409;-76
2022/11/24 05:13:00;;;;;;;26.50;5.82;;;4.40;99.90;;;3.18;100.00;96856.69;5067399;28;20633;-76
2022/11/24 05:15:27;;;;;;;32.60;6.55;;;4.40;99.90;;;3.20;100.00;96844.19;5067045;28;20854;-76
2022/11/24 05:17:54;;;;;;;38.80;6.25;;;4.40;99.90;;;3.31;100.00;96842.66;5080752;28;20397;-74
2022/11/24 05:20:20;;;;;;;31.25;6.10;;;4.50;99.90;;;3.32;100.00;96845.06;5093663;28;20415;-80
2022/11/24 05:22:46;;;;;;;23.17;5.77;;;4.50;99.90;;;3.33;100.00;96851.09;5069024;28;20863;-76
2022/11/24 05:25:13;;;;;;;29.08;5.90;;;4.50;99.90;;;3.32;100.00;96868.59;5078039;28;20419;-76
2022/11/24 05:27:39;;;;;;;32.85;5.53;;;4.50;99.90;;;3.36;100.00;96861.94;5079889;28;20422;-76
2022/11/24 05:30:07;;;;;;;32.40;5.57;;;4.50;99.90;;;3.31;100.00;96872.22;5086827;28;20413;-76
2022/11/24 05:32:33;;;;;;;29.55;6.32;;;4.50;99.90;;;3.30;100.00;96872.47;5082631;28;20433;-76
2022/11/24 05:35:03;;;;;;;35.83;5.65;;;4.50;99.90;;;3.33;100.00;96878.03;5070021;28;20781;-76
2022/11/24 05:37:29;;;;;;;27.45;5.40;;;4.50;99.90;;;3.38;100.00;96869.56;5077615;28;20942;-78
2022/11/24 05:39:55;;;;;;;38.00;6.72;;;4.50;99.90;;;3.46;100.00;96867.44;5073352;28;20764;-76
2022/11/24 05:42:39;;;;;;;29.57;5.70;;;4.60;99.90;;;3.56;100.00;96874.78;5091302;28;20418;-76
2022/11/24 05:45:08;;;;;;;35.63;5.90;;;4.70;99.90;;;3.60;100.00;96872.53;5089702;28;20435;-76
2022/11/24 05:47:34;;;;;;;30.65;5.65;;;4.70;99.90;;;3.68;100.00;96867.81;5091420;28;20437;-77
2022/11/24 05:50:01;;;;;;;35.03;5.43;;;4.80;99.90;;;3.75;100.00;96875.56;5073570;28;20463;-76
2022/11/24 05:52:27;;;;;;;31.05;5.32;;;4.90;99.90;;;3.77;100.00;96868.28;5069966;28;20418;-76
2022/11/24 05:54:53;;;;;;;34.80;5.85;;;4.90;99.90;;;3.77;100.00;96870.91;5078555;28;20485;-75
2022/11/24 05:57:18;;;;;;;31.30;5.17;;;4.90;99.90;;;3.78;100.00;96867.25;5069615;28;20947;-76
2022/11/24 05:59:44;;;;;;;39.80;5.68;;;4.90;99.90;;;3.82;100.00;96864.00;5053308;28;20412;-76
2022/11/24 06:02:10;;;;;;;29.25;5.20;;;5.00;99.90;;;3.85;100.00;96868.78;5085428;28;20450;-76
2022/11/24 06:04:36;;;;;;;25.23;4.80;;;5.00;99.90;;;3.94;100.00;96866.66;5071442;28;20413;-73
2022/11/24 06:07:07;;;;;;;31.58;4.60;;;5.10;99.90;;;3.98;100.00;96861.78;5089615;28;20409;-73
2022/11/24 06:09:35;;;;;;;40.60;5.33;;;5.10;99.90;;;4.04;100.00;96864.31;5089545;28;20840;-73
2022/11/24 06:12:01;;;;;;;33.88;4.90;;;5.20;99.90;;;4.00;100.00;96867.59;5088491;28;20483;-76
2022/11/24 06:14:27;;;;;;;27.27;4.70;;;5.10;99.90;;;4.03;100.00;96867.16;5067716;28;20992;-74
2022/11/24 06:16:53;;;;;;;29.47;4.80;;;5.10;99.90;;;4.05;100.00;96865.94;5069958;28;20398;-74
2022/11/24 06:19:19;;;;;;;23.60;4.53;;;5.20;99.90;;;4.05;100.00;96865.13;5064999;28;20444;-75
2022/11/24 06:21:44;;;;;;;29.15;4.60;;;5.20;99.90;;;4.18;100.00;96857.06;5081228;28;20460;-74
2022/11/24 06:24:13;;;;;;;34.60;5.00;;;5.30;99.90;;;4.17;100.00;96863.34;5072490;28;20416;-75
2022/11/24 06:26:39;;;;;;;27.67;4.30;;;5.30;99.90;;;4.17;100.00;96874.63;5090812;28;20439;-75
2022/11/24 06:29:06;;;;;;;36.97;4.90;;;5.30;99.90;;;4.19;100.00;96871.78;5091175;28;20447;-75
2022/11/24 06:31:32;;;;;;;37.63;5.85;;;5.30;99.90;;;4.36;100.00;96883.19;5089044;28;20414;-75
2022/11/24 06:33:58;;;;;;;37.00;5.13;;;5.40;99.90;;;4.25;100.00;96887.41;5090114;28;20416;-75
2022/11/24 06:36:24;;;;;;;38.45;5.53;;;5.40;99.90;;;4.29;100.00;96878.06;5090931;28;20416;-75
2022/11/24 06:38:50;;;;;;;26.13;4.75;;;5.40;99.90;;;4.31;100.00;96884.91;5080781;28;20476;-75
2022/11/24 06:41:18;;;;;;;31.50;5.07;;;5.40;99.90;;;4.34;100.00;96887.09;5070314;28;20416;-75
2022/11/24 06:43:45;;;;;;;28.70;4.68;;;5.40;99.90;;;4.36;100.00;96898.91;5059341;28;20482;-74
2022/11/24 06:46:11;;;;;;;36.15;4.60;;;5.50;99.90;;;4.40;100.00;96902.69;5088236;28;20775;-74
2022/11/24 06:48:38;;;;;;;33.10;5.10;;;5.50;99.90;;;4.44;100.00;96906.47;5090377;28;20414;-74
2022/11/24 06:51:07;;;;;;;30.92;4.50;;;5.50;99.90;;;4.47;100.00;96913.09;5090165;28;20428;-75
2022/11/24 06:53:38;;;;;;;19.23;3.93;;;5.60;99.90;;;4.55;100.00;96915.38;5071033;28;20959;-74
2022/11/24 06:56:06;;;;;;;31.48;4.55;;;5.60;99.90;;;4.48;100.00;96925.16;5073534;28;20405;-74
2022/11/24 06:58:33;;;;;;;25.80;3.63;;;5.60;99.90;;;4.51;100.00;96929.97;5090579;28;20406;-75
2022/11/24 07:00:59;;;;;;;25.50;3.72;;;5.60;99.90;;;4.52;100.00;96924.50;5071153;28;20407;-74
2022/11/24 07:03:25;;;;;;;35.33;4.80;;;5.60;99.90;;;4.50;100.00;96936.25;5069320;28;20403;-74
2022/11/24 07:05:55;;;;;;;28.52;4.60;;;5.60;99.90;;;4.50;100.00;96934.41;5071259;28;20409;-75
2022/11/24 07:08:21;;;;;;;36.63;4.87;;;5.60;99.90;;;4.54;100.00;96943.41;5070208;28;20430;-74
2022/11/24 07:10:47;;;;;;;26.75;3.90;;;5.60;99.90;;;4.55;100.00;96947.66;5071032;28;20416;-74
2022/11/24 07:13:13;;;;;;;17.50;3.22;;;5.70;99.90;;;4.59;100.00;96953.22;5075670;28;20409;-74
2022/11/24 07:15:40;;;;;;;25.20;4.10;;;5.70;99.90;;;4.59;100.00;96955.84;5068060;28;20411;-73
2022/11/24 07:18:06;;;;;;;26.45;4.10;;;5.70;99.90;;;4.59;100.00;96961.09;5068708;28;20407;-73
2022/11/24 07:20:32;;;;;;;38.45;5.00;;;5.70;99.90;;;4.62;100.00;96966.69;5081315;28;20496;-74
2022/11/24 07:22:58;;;;;;;39.00;5.47;;;5.70;99.90;;;4.80;100.00;96976.34;5069236;28;20443;-74
2022/11/24 07:25:24;;;;;;;36.22;4.88;;;5.90;99.90;;;4.75;100.00;96978.00;5075800;28;20497;-74
2022/11/24 07:27:55;;;;;;;30.45;3.92;;;5.90;99.90;;;4.79;100.00;96984.41;5090066;28;20483;-74
2022/11/24 07:30:21;;;;;;;27.42;4.60;;;5.90;99.90;;;4.80;100.00;96989.44;5089383;28;20641;-74
2022/11/24 07:32:48;;;;;;;30.38;4.47;;;5.90;99.90;;;4.81;100.00;96996.25;5068623;28;20449;-73
2022/11/24 07:35:14;;;;;;;36.80;5.15;;;5.90;99.90;;;4.80;100.00;96993.88;5051393;28;20402;-74
2022/11/24 07:37:40;;;;;;;29.05;4.10;;;5.90;99.90;;;4.96;100.00;97003.75;5088472;28;20539;-73
2022/11/24 07:40:07;;;;;;;32.53;5.15;;;6.00;99.90;;;4.90;100.00;97012.47;5086216;28;20415;-73
2022/11/24 07:42:33;;;;;;;28.43;5.37;;;6.00;99.90;;;4.95;100.00;97012.63;5069956;28;21077;-73
2022/11/24 07:44:59;;;;;;;29.38;4.03;;;6.00;99.90;;;5.01;100.00;97025.66;5090026;28;20496;-73
2022/11/24 07:47:25;;;;;;;17.00;3.60;;;6.10;99.90;;;5.07;100.00;97035.22;5091783;28;20408;-73
2022/11/24 07:49:52;;;;;;;23.23;3.77;;;6.10;99.90;;;5.10;100.00;97035.81;5102182;28;20409;-73
2022/11/24 07:52:18;;;;;;;24.30;3.75;;;6.20;99.90;;;5.13;100.00;97032.72;5084049;28;20411;-73
2022/11/24 07:54:44;;;;;;;25.77;3.73;;;6.20;99.90;;;5.14;100.00;97047.44;5094886;28;20432;-73
2022/11/24 07:57:10;;;;;;;21.92;3.70;;;6.20;99.90;;;5.15;100.00;97041.19;5083471;28;20685;-73
2022/11/24 07:59:36;;;;;;;25.05;3.20;;;6.20;99.90;;;5.09;100.00;97036.84;5073920;28;20968;-73
2022/11/24 08:02:02;;;;;;;22.60;3.70;;;6.20;99.90;;;4.97;100.00;97032.34;5078183;28;20434;-73
2022/11/24 08:04:27;;;;;;;28.92;3.78;;;6.10;99.90;;;4.91;100.00;97032.44;5069650;28;20420;-72
2022/11/24 08:06:55;;;;;;;25.73;3.63;;;6.10;99.90;;;4.92;100.00;97018.31;5099602;28;20408;-74
2022/11/24 08:09:20;;;;;;;23.73;3.80;;;6.00;99.90;;;4.93;100.00;97020.72;5109258;28;20524;-74
2022/11/24 08:11:46;;;;;;;15.25;3.30;;;6.00;99.90;;;4.96;100.00;97017.63;5083672;28;20450;-73
2022/11/24 08:14:12;;;;;;;22.25;3.45;;;6.00;99.90;;;4.97;100.00;97007.94;5078682;28;20415;-74
2022/11/24 08:16:38;;;;;;;20.47;3.27;;;6.10;99.90;;;4.95;100.00;97013.44;5069539;28;20853;-75
2022/11/24 08:19:04;;;;;;;17.67;3.08;;;6.00;99.90;;;5.03;100.00;97020.97;5070740;28;20436;-73
2022/11/24 08:21:31;;;;;;;13.00;2.50;;;6.10;99.90;;;4.99;100.00;97029.50;5087478;28;20446;-74
2022/11/24 08:23:58;;;;;;;14.00;2.83;;;6.10;99.90;;;4.98;100.00;97028.69;5075806;28;20401;-73
2022/11/24 08:26:25;;;;;;;14.90;2.78;;;6.10;99.90;;;4.92;100.00;97034.03;5087052;28;20602;-74
2022/11/24 08:28:54;;;;;;;12.68;2.38;;;6.00;99.90;;;4.89;100.00;97029.22;5088511;28;20406;-73
2022/11/24 08:31:20;;;;;;;10.80;2.22;;;6.00;99.90;;;4.93;100.00;97044.31;5088066;28;20443;-75
2022/11/24 08:33:46;;;;;;;16.50;2.50;;;6.00;99.90;;;4.91;100.00;97042.94;5065882;28;20785;-74
2022/11/24 08:36:15;;;;;;;14.82;2.72;;;6.00;99.90;;;4.89;100.00;97043.16;5075799;28;20402;-72
2022/11/24 08:38:43;;;;;;;17.40;2.40;;;6.00;99.90;;;4.91;100.00;97045.56;5083253;28;20450;-75
2022/11/24 08:41:14;;;;;;;15.53;2.23;;;6.00;99.90;;;4.92;100.00;97060.28;5080684;28;20431;-75
2022/11/24 08:43:40;;;;;;;7.50;2.03;;;6.00;99.90;;;4.95;100.00;97068.50;5082528;28;20796;-75
2022/11/24 08:46:08;;;;;;;11.63;2.45;;;6.00;99.90;;;4.97;100.00;97060.41;5073267;28;20889;-74
2022/11/24 08:48:35;;;;;;;11.02;2.00;;;6.00;99.90;;;4.90;100.00;97068.34;5069703;28;20470;-76
2022/11/24 08:51:07;;;;;;;10.98;2.20;;;6.00;99.90;;;4.87;100.00;97071.44;5085549;28;20678;-74
2022/11/24 08:53:33;;;;;;;5.63;1.83;;;6.00;99.90;;;4.90;100.00;97070.19;5070896;28;20458;-75
2022/11/24 08:55:59;;;;;;;16.95;2.45;;;6.00;99.90;;;4.93;100.00;97069.75;5055098;28;20402;-76
2022/11/24 08:58:27;;;;;;;8.38;2.20;;;6.00;99.90;;;4.87;100.00;97073.25;5079941;28;20411;-76
2022/11/24 09:00:53;;;;;;;8.25;1.95;;;6.00;99.90;;;4.96;100.00;97077.19;5070222;28;20499;-76
2022/11/24 09:03:19;;;;;;;8.55;2.00;;;6.00;99.90;;;5.00;100.00;97080.94;5078521;28;20502;-77
2022/11/24 09:05:45;;;;;;;4.57;1.58;;;6.10;99.90;;;5.09;100.00;97081.44;5079258;28;20448;-76
2022/11/24 09:08:11;;;;;;;7.90;2.00;;;6.20;99.90;;;5.03;100.00;97077.88;5089297;28;21120;-79
2022/11/24 09:10:37;;;;;;;3.92;1.70;;;6.10;99.90;;;4.98;100.00;97077.72;5075874;28;20415;-76
2022/11/24 09:13:03;;;;;;;7.38;1.60;;;6.10;99.90;;;5.04;100.00;97084.72;5071787;28;20402;-75
2022/11/24 09:15:30;;;;;;;7.40;1.77;;;6.10;99.90;;;5.02;100.00;97081.53;5087573;28;20797;-76
2022/11/24 09:17:56;;;;;;;5.00;1.70;;;6.10;99.90;;;5.17;100.00;97086.38;5067158;28;20415;-76
2022/11/24 09:20:22;;;;;;;7.25;1.70;;;6.20;99.90;;;5.35;100.00;97081.84;5073175;28;20415;-75
2022/11/24 09:22:48;;;;;;;6.65;1.75;;;6.40;99.90;;;5.47;100.00;97095.00;5060278;28;20422;-74
2022/11/24 09:25:14;;;;;;;4.67;1.50;;;6.50;99.90;;;5.53;100.00;97107.22;5075281;28;20561;-72
2022/11/24 09:27:40;;;;;;;5.65;1.50;;;6.50;99.90;;;5.51;100.00;97111.09;5081464;28;21570;-76
2022/11/24 09:30:08;;;;;;;8.35;2.20;;;6.50;99.90;;;5.43;100.00;97117.47;5082186;28;20407;-76
2022/11/24 09:32:36;;;;;;;9.95;2.13;;;6.50;99.90;;;5.28;100.00;97109.19;5104067;28;20644;-76
2022/11/24 09:35:02;;;;;;;9.80;2.08;;;6.40;99.90;;;5.26;100.00;97113.91;5079488;28;20439;-77
2022/11/24 09:37:28;;;;;;;5.07;1.80;;;6.30;99.90;;;5.39;100.00;97124.19;5083314;28;20409;-78
2022/11/24 09:39:54;;;;;;;7.40;2.03;;;6.40;99.90;;;5.34;100.00;97127.47;5100236;28;20404;-77
2022/11/24 09:42:38;;;;;;;4.13;1.50;;;6.40;99.90;;;5.51;100.00;97132.09;5084644;28;20443;-76
2022/11/24 09:45:26;;;;;;;2.20;1.40;;;6.50;99.90;;;5.37;100.00;97129.66;5074807;28;20400;-75
2022/11/24 09:48:07;;;;;;;8.00;1.65;;;6.40;99.90;;;5.37;100.00;97132.28;5084218;28;20411;-77
2022/11/24 09:50:35;;;;;;;4.13;1.40;;;6.40;99.90;;;5.52;100.00;97126.63;5075571;28;20494;-76
2022/11/24 09:53:11;;;;;;;6.07;1.42;;;6.50;99.90;;;5.69;100.00;97137.28;5086290;28;20402;-76
2022/11/24 09:55:42;;;;;;;3.83;1.52;;;6.70;99.90;;;5.77;100.00;97136.94;5082698;28;20633;-72
2022/11/24 09:58:17;;;;;;;2.20;1.30;;;6.70;99.90;;;5.70;100.00;97134.44;5084946;28;20406;-77
2022/11/24 10:00:45;;;;;;;4.53;1.40;;;6.70;99.90;;;5.74;100.00;97132.94;5081295;28;20461;-75
2022/11/24 10:03:22;;;;;;;2.75;1.27;;;6.70;99.90;;;5.74;100.00;97140.81;5078914;28;20406;-75
2022/11/24 10:05:50;;;;;;;2.53;1.35;;;6.70;99.90;;;5.83;100.00;97136.03;5086182;28;20427;-74
2022/11/24 10:08:46;;;;;;;5.60;1.60;;;6.80;99.90;;;6.04;100.00;97132.88;5073708;28;20406;-73
2022/11/24 10:11:17;;;;;;;5.80;1.40;;;7.00;99.90;;;7.04;100.00;97134.44;5073249;28;20811;-78
2022/11/24 10:14:21;;;;;;;28.88;3.60;;;7.80;99.90;;;8.31;100.00;97129.47;5071903;28;20766;-78
2022/11/24 10:16:53;;;;;;;1.05;0.95;;;9.20;99.90;;;9.36;100.00;97142.38;5081966;28;20856;-76
2022/11/24 10:19:37;;;;;;;2.75;1.08;;;10.20;99.90;;;9.96;100.00;97142.13;5073968;28;20469;-77
2022/11/24 10:22:26;;;;;;;1.27;0.87;;;10.90;99.90;;;10.25;100.00;97139.97;5076003;28;20445;-77
2022/11/24 10:25:11;;;;;;;1.30;0.90;;;11.20;99.90;;;9.36;100.00;97144.19;5075311;28;20411;-79